createdAt,value
2022-12-15T00:01:11.107Z,14.40
2022-12-15T00:02:32.231Z,13.70
2022-12-15T00:03:53.347Z,13.23
2022-12-15T00:05:14.412Z,11.98
2022-12-15T00:06:35.462Z,16.13
2022-12-15T00:07:56.569Z,11.52
2022-12-15T00:09:20.426Z,12.00
2022-12-15T00:10:42.936Z,14.75
2022-12-15T00:12:04.342Z,13.25
2022-12-15T00:13:32.745Z,15.18
2022-12-15T00:14:54.059Z,11.20
2022-12-15T00:16:15.083Z,14.38
2022-12-15T00:17:36.350Z,13.60
2022-12-15T00:18:57.329Z,13.45
2022-12-15T00:20:18.788Z,14.05
2022-12-15T00:21:39.765Z,11.93
2022-12-15T00:23:00.831Z,15.05
2022-12-15T00:24:22.024Z,12.80
2022-12-15T00:25:43.178Z,13.98
2022-12-15T00:27:04.240Z,15.20
2022-12-15T00:28:25.579Z,13.55
2022-12-15T00:29:46.442Z,12.10
2022-12-15T00:31:07.557Z,14.63
2022-12-15T00:32:28.724Z,15.25
2022-12-15T00:33:49.834Z,14.95
2022-12-15T00:35:10.823Z,14.88
2022-12-15T00:36:31.696Z,15.80
2022-12-15T00:37:52.889Z,15.98
2022-12-15T00:38:58.114Z,13.75
2022-12-15T00:40:05.214Z,10.52
2022-12-15T00:41:07.530Z,12.23
2022-12-15T00:42:10.597Z,12.57
2022-12-15T00:43:13.024Z,16.77
2022-12-15T00:44:20.348Z,10.00
2022-12-15T00:45:42.904Z,15.27
2022-12-15T00:46:54.418Z,12.60
2022-12-15T00:47:56.926Z,12.70
2022-12-15T00:48:59.653Z,13.50
2022-12-15T00:50:20.709Z,13.65
2022-12-15T00:51:43.563Z,13.57
2022-12-15T00:53:04.629Z,12.27
2022-12-15T00:54:25.760Z,11.50
2022-12-15T00:55:46.801Z,15.65
2022-12-15T00:57:07.730Z,13.77
2022-12-15T00:58:28.731Z,14.00
2022-12-15T00:59:49.725Z,11.57
2022-12-15T01:01:10.693Z,12.52
2022-12-15T01:02:31.937Z,14.18
2022-12-15T01:03:53.102Z,13.30
2022-12-15T01:05:14.284Z,11.93
2022-12-15T01:06:37.941Z,12.07
2022-12-15T01:07:59.005Z,11.98
2022-12-15T01:09:20.657Z,13.18
2022-12-15T01:10:41.758Z,11.82
2022-12-15T01:12:03.935Z,10.90
2022-12-15T01:13:25.052Z,15.50
2022-12-15T01:14:46.174Z,15.90
2022-12-15T01:16:07.375Z,11.77
2022-12-15T01:17:28.600Z,13.40
2022-12-15T01:18:52.289Z,15.70
2022-12-15T01:20:18.015Z,16.25
2022-12-15T01:21:24.288Z,13.82
2022-12-15T01:22:27.554Z,12.80
2022-12-15T01:23:31.814Z,13.02
2022-12-15T01:24:34.920Z,14.50
2022-12-15T01:25:39.428Z,12.73
2022-12-15T01:26:41.757Z,12.75
2022-12-15T01:27:44.776Z,11.82
2022-12-15T01:28:47.180Z,14.65
2022-12-15T01:29:49.434Z,11.90
2022-12-15T01:30:51.828Z,15.48
2022-12-15T01:31:54.190Z,17.83
2022-12-15T01:32:56.741Z,13.77
2022-12-15T01:33:59.018Z,12.50
2022-12-15T01:35:01.359Z,11.73
2022-12-15T01:36:03.889Z,13.50
2022-12-15T01:37:06.208Z,11.48
2022-12-15T01:38:09.633Z,12.05
2022-12-15T01:39:12.520Z,11.80
2022-12-15T01:40:35.664Z,14.73
2022-12-15T01:41:38.244Z,14.35
2022-12-15T01:42:40.662Z,13.73
2022-12-15T01:43:42.917Z,14.98
2022-12-15T01:44:49.940Z,12.15
2022-12-15T01:46:02.488Z,13.85
2022-12-15T01:47:05.625Z,14.23
2022-12-15T01:48:11.092Z,16.15
2022-12-15T01:49:21.913Z,13.70
2022-12-15T01:50:26.248Z,18.17
2022-12-15T01:51:30.722Z,16.13
2022-12-15T01:52:33.181Z,13.00
2022-12-15T01:53:40.984Z,11.88
2022-12-15T01:54:49.657Z,12.90
2022-12-15T01:55:52.004Z,11.35
2022-12-15T01:56:58.732Z,11.57
2022-12-15T01:58:06.692Z,15.20
2022-12-15T01:59:12.613Z,17.50
2022-12-15T02:00:15.376Z,12.00
2022-12-15T02:01:18.029Z,13.30
2022-12-15T02:02:24.946Z,11.82
2022-12-15T02:03:27.653Z,13.77
2022-12-15T02:04:31.139Z,11.98
2022-12-15T02:05:35.146Z,16.13
2022-12-15T02:06:37.443Z,13.65
2022-12-15T02:07:39.782Z,12.88
2022-12-15T02:08:45.003Z,13.65
2022-12-15T02:09:49.632Z,14.95
2022-12-15T02:11:28.989Z,12.10
2022-12-15T02:12:55.759Z,12.07
2022-12-15T02:14:02.261Z,13.18
2022-12-15T02:15:35.413Z,14.00
2022-12-15T02:16:43.564Z,16.77
2022-12-15T02:18:02.991Z,16.17
2022-12-15T02:19:26.657Z,18.42
2022-12-15T02:20:58.522Z,16.83
2022-12-15T02:22:38.220Z,14.82
2022-12-15T02:24:15.832Z,13.50
2022-12-15T02:25:25.460Z,16.55
2022-12-15T02:26:51.415Z,13.75
2022-12-15T02:28:25.652Z,17.75
2022-12-15T02:29:36.479Z,92.97
2022-12-15T02:31:13.106Z,144.70
2022-12-15T02:32:21.985Z,134.57
2022-12-15T02:33:27.564Z,91.53
2022-12-15T02:34:53.341Z,61.85
2022-12-15T02:35:58.800Z,52.50
2022-12-15T02:37:22.506Z,47.67
2022-12-15T02:38:37.128Z,41.33
2022-12-15T02:39:39.654Z,37.83
2022-12-15T02:40:42.108Z,36.13
2022-12-15T02:41:47.082Z,29.40
2022-12-15T02:42:53.086Z,28.73
2022-12-15T02:43:55.886Z,26.92
2022-12-15T02:45:41.355Z,29.17
2022-12-15T02:47:27.828Z,23.48
2022-12-15T02:48:34.946Z,24.73
2022-12-15T02:50:14.697Z,31.98
2022-12-15T02:51:26.434Z,28.15
2022-12-15T02:52:56.181Z,43.03
2022-12-15T02:54:35.961Z,70.30
2022-12-15T02:55:56.278Z,31.50
2022-12-15T02:57:38.177Z,26.42
2022-12-15T02:59:11.044Z,23.92
2022-12-15T03:00:16.807Z,19.58
2022-12-15T03:01:44.725Z,20.83
2022-12-15T03:02:55.240Z,18.23
2022-12-15T03:03:59.732Z,17.35
2022-12-15T03:05:02.579Z,18.48
2022-12-15T03:06:05.456Z,17.25
2022-12-15T03:07:09.887Z,17.73
2022-12-15T03:08:13.676Z,16.20
2022-12-15T03:09:16.065Z,14.43
2022-12-15T03:10:19.838Z,14.80
2022-12-15T03:11:22.580Z,13.77
2022-12-15T03:12:25.283Z,16.60
2022-12-15T03:13:27.979Z,12.85
2022-12-15T03:14:30.576Z,14.48
2022-12-15T03:15:35.649Z,17.33
2022-12-15T03:16:38.240Z,14.32
2022-12-15T03:17:41.152Z,12.18
2022-12-15T03:18:43.498Z,14.05
2022-12-15T03:19:45.892Z,13.35
2022-12-15T03:20:53.718Z,12.55
2022-12-15T03:21:57.621Z,12.60
2022-12-15T03:22:59.949Z,10.75
2022-12-15T03:24:02.575Z,12.50
2022-12-15T03:25:05.304Z,12.45
2022-12-15T03:26:07.914Z,10.88
2022-12-15T03:27:10.397Z,12.60
2022-12-15T03:28:12.755Z,12.88
2022-12-15T03:29:15.176Z,11.68
2022-12-15T03:30:17.720Z,12.57
2022-12-15T03:31:20.008Z,9.98
2022-12-15T03:32:22.307Z,9.68
2022-12-15T03:33:24.661Z,11.85
2022-12-15T03:34:27.381Z,11.73
2022-12-15T03:35:31.038Z,12.60
2022-12-15T03:36:35.016Z,13.00
2022-12-15T03:37:39.849Z,340.02
2022-12-15T03:38:43.760Z,286.60
2022-12-15T03:39:47.822Z,353.95
2022-12-15T03:40:52.006Z,275.25
2022-12-15T03:41:56.700Z,217.45
2022-12-15T03:42:59.149Z,161.32
2022-12-15T03:44:02.297Z,113.15
2022-12-15T03:45:04.963Z,81.85
2022-12-15T03:46:07.292Z,69.80
2022-12-15T03:47:10.101Z,59.85
2022-12-15T03:48:12.364Z,57.47
2022-12-15T03:49:16.505Z,50.25
2022-12-15T03:50:21.323Z,50.55
2022-12-15T03:51:23.763Z,45.88
2022-12-15T03:52:26.956Z,44.97
2022-12-15T03:53:29.586Z,42.08
2022-12-15T03:54:34.467Z,41.70
2022-12-15T03:55:36.977Z,42.55
2022-12-15T03:56:39.402Z,43.97
2022-12-15T03:57:44.040Z,39.85
2022-12-15T03:58:47.365Z,41.08
2022-12-15T03:59:52.986Z,36.08
2022-12-15T04:00:55.591Z,35.65
2022-12-15T04:01:58.012Z,39.67
2022-12-15T04:03:00.610Z,200.82
2022-12-15T04:04:05.074Z,227.73
2022-12-15T04:05:08.385Z,164.07
2022-12-15T04:06:10.663Z,133.98
2022-12-15T04:07:12.908Z,121.97
2022-12-15T04:08:15.341Z,85.75
2022-12-15T04:09:19.297Z,69.85
2022-12-15T04:10:26.259Z,62.45
2022-12-15T04:11:32.940Z,53.80
2022-12-15T04:12:35.238Z,53.40
2022-12-15T04:13:38.690Z,47.47
2022-12-15T04:14:42.456Z,51.65
2022-12-15T04:15:44.737Z,50.38
2022-12-15T04:16:47.943Z,51.75
2022-12-15T04:17:52.568Z,47.30
2022-12-15T04:19:14.806Z,48.38
2022-12-15T04:20:17.156Z,49.88
2022-12-15T04:21:19.795Z,44.85
2022-12-15T04:22:23.938Z,46.28
2022-12-15T04:23:26.617Z,43.67
2022-12-15T04:24:48.892Z,43.13
2022-12-15T04:26:09.816Z,193.98
2022-12-15T04:27:32.249Z,186.20
2022-12-15T04:28:53.407Z,271.40
2022-12-15T04:30:16.878Z,187.40
2022-12-15T04:31:51.497Z,91.00
2022-12-15T04:33:14.136Z,131.85
2022-12-15T04:34:40.789Z,91.30
2022-12-15T04:36:01.916Z,84.97
2022-12-15T04:37:25.962Z,78.22
2022-12-15T04:38:50.438Z,77.93
2022-12-15T04:40:12.952Z,72.72
2022-12-15T04:41:36.368Z,64.55
2022-12-15T04:43:01.982Z,64.05
2022-12-15T04:44:23.724Z,57.97
2022-12-15T04:45:44.767Z,59.65
2022-12-15T04:47:05.890Z,58.55
2022-12-15T04:48:27.542Z,56.30
2022-12-15T04:49:48.573Z,55.03
2022-12-15T04:51:09.571Z,50.78
2022-12-15T04:52:30.524Z,54.50
2022-12-15T04:53:51.514Z,46.50
2022-12-15T04:55:12.606Z,47.30
2022-12-15T04:56:34.664Z,53.38
2022-12-15T04:57:55.678Z,49.20
2022-12-15T04:59:16.769Z,53.50
2022-12-15T05:00:37.948Z,44.58
2022-12-15T05:01:59.096Z,59.47
2022-12-15T05:03:27.377Z,55.85
2022-12-15T05:04:49.632Z,55.85
2022-12-15T05:06:10.748Z,47.10
2022-12-15T05:07:31.784Z,44.30
2022-12-15T05:08:52.882Z,50.05
2022-12-15T05:10:15.350Z,39.20
2022-12-15T05:11:36.680Z,49.70
2022-12-15T05:12:57.870Z,45.08
2022-12-15T05:14:18.887Z,42.97
2022-12-15T05:15:39.850Z,47.65
2022-12-15T05:17:01.044Z,46.20
2022-12-15T05:18:22.193Z,43.63
2022-12-15T05:19:43.336Z,45.90
2022-12-15T05:21:04.277Z,44.92
2022-12-15T05:22:24.987Z,42.30
2022-12-15T05:23:45.728Z,52.67
2022-12-15T05:25:06.878Z,46.50
2022-12-15T05:26:28.130Z,45.28
2022-12-15T05:27:49.109Z,47.45
2022-12-15T05:29:10.184Z,43.20
2022-12-15T05:30:31.274Z,44.53
2022-12-15T05:31:52.204Z,42.38
2022-12-15T05:32:54.660Z,44.00
2022-12-15T05:34:04.520Z,44.72
2022-12-15T05:35:07.925Z,40.33
2022-12-15T05:36:10.173Z,40.03
2022-12-15T05:37:12.497Z,42.30
2022-12-15T05:38:14.733Z,38.28
2022-12-15T05:39:17.070Z,42.72
2022-12-15T05:40:19.320Z,40.15
2022-12-15T05:41:22.239Z,44.92
2022-12-15T05:42:24.548Z,45.65
2022-12-15T05:43:28.532Z,41.88
2022-12-15T05:44:31.094Z,51.03
2022-12-15T05:45:33.436Z,38.25
2022-12-15T05:46:36.130Z,43.45
2022-12-15T05:47:38.726Z,42.20
2022-12-15T05:48:41.467Z,42.03
2022-12-15T05:49:43.761Z,37.38
2022-12-15T05:50:46.179Z,40.00
2022-12-15T05:51:48.569Z,39.30
2022-12-15T05:52:51.020Z,38.58
2022-12-15T05:53:54.116Z,40.40
2022-12-15T05:54:56.504Z,43.50
2022-12-15T05:56:03.310Z,34.67
2022-12-15T05:57:05.781Z,37.47
2022-12-15T05:58:08.125Z,39.03
2022-12-15T05:59:10.558Z,39.80
2022-12-15T06:00:13.416Z,33.35
2022-12-15T06:01:18.254Z,33.15
2022-12-15T06:02:20.642Z,40.15
2022-12-15T06:03:22.944Z,36.25
2022-12-15T06:04:25.429Z,36.08
2022-12-15T06:05:27.807Z,44.05
2022-12-15T06:06:30.527Z,33.45
2022-12-15T06:07:33.879Z,32.50
2022-12-15T06:08:38.741Z,33.55
2022-12-15T06:09:41.120Z,43.20
2022-12-15T06:10:43.445Z,39.03
2022-12-15T06:11:46.642Z,39.20
2022-12-15T06:12:48.972Z,39.45
2022-12-15T06:13:51.365Z,35.83
2022-12-15T06:14:53.615Z,34.60
2022-12-15T06:15:57.097Z,36.28
2022-12-15T06:17:00.055Z,34.92
2022-12-15T06:18:02.519Z,34.72
2022-12-15T06:19:04.886Z,34.38
2022-12-15T06:20:07.809Z,35.30
2022-12-15T06:21:12.861Z,36.75
2022-12-15T06:22:15.141Z,32.72
2022-12-15T06:23:17.496Z,32.22
2022-12-15T06:24:19.912Z,36.58
2022-12-15T06:25:22.166Z,33.70
2022-12-15T06:26:35.968Z,30.25
2022-12-15T06:27:38.333Z,35.65
2022-12-15T06:28:41.295Z,32.70
2022-12-15T06:29:43.579Z,30.55
2022-12-15T06:30:45.829Z,33.17
2022-12-15T06:31:48.208Z,37.10
2022-12-15T06:32:50.528Z,34.08
2022-12-15T06:34:01.034Z,31.33
2022-12-15T06:35:04.051Z,28.67
2022-12-15T06:36:09.368Z,35.75
2022-12-15T06:37:12.318Z,34.25
2022-12-15T06:38:15.045Z,30.75
2022-12-15T06:39:17.488Z,32.78
2022-12-15T06:40:19.726Z,31.55
2022-12-15T06:41:22.826Z,30.75
2022-12-15T06:42:25.144Z,30.23
2022-12-15T06:43:28.972Z,31.63
2022-12-15T06:44:31.591Z,32.45
2022-12-15T06:45:34.734Z,31.17
2022-12-15T06:46:37.179Z,35.80
2022-12-15T06:47:39.468Z,32.00
2022-12-15T06:48:44.940Z,43.33
2022-12-15T06:49:47.234Z,34.53
2022-12-15T06:50:50.222Z,38.35
2022-12-15T06:51:52.705Z,35.20
2022-12-15T06:52:54.971Z,35.10
2022-12-15T06:53:57.277Z,31.20
2022-12-15T06:55:01.493Z,37.42
2022-12-15T06:56:06.664Z,31.00
2022-12-15T06:57:08.950Z,33.30
2022-12-15T06:58:12.428Z,31.63
2022-12-15T06:59:14.759Z,30.08
2022-12-15T07:00:17.375Z,29.52
2022-12-15T07:01:24.731Z,28.25
2022-12-15T07:02:29.229Z,32.22
2022-12-15T07:03:32.501Z,30.40
2022-12-15T07:04:35.253Z,26.60
2022-12-15T07:05:37.860Z,26.33
2022-12-15T07:06:40.838Z,24.25
2022-12-15T07:07:43.365Z,31.80
2022-12-15T07:08:52.344Z,25.08
2022-12-15T07:09:54.862Z,25.20
2022-12-15T07:10:57.887Z,23.27
2022-12-15T07:12:00.672Z,24.67
2022-12-15T07:13:03.192Z,24.98
2022-12-15T07:14:05.489Z,26.25
2022-12-15T07:15:08.225Z,23.02
2022-12-15T07:16:12.452Z,25.80
2022-12-15T07:17:14.707Z,22.65
2022-12-15T07:18:17.708Z,24.67
2022-12-15T07:19:20.166Z,23.48
2022-12-15T07:20:28.467Z,24.52
2022-12-15T07:21:31.731Z,25.58
2022-12-15T07:22:34.356Z,26.10
2022-12-15T07:23:53.445Z,23.10
2022-12-15T07:24:56.911Z,22.67
2022-12-15T07:26:05.364Z,25.98
2022-12-15T07:27:11.984Z,28.27
2022-12-15T07:28:14.324Z,31.70
2022-12-15T07:29:22.642Z,26.63
2022-12-15T07:30:25.736Z,25.85
2022-12-15T07:31:28.199Z,43.03
2022-12-15T07:32:31.114Z,51.22
2022-12-15T07:33:34.722Z,43.75
2022-12-15T07:34:37.140Z,44.75
2022-12-15T07:35:39.555Z,42.58
2022-12-15T07:36:44.597Z,28.30
2022-12-15T07:37:51.000Z,24.52
2022-12-15T07:39:01.388Z,24.60
2022-12-15T07:40:05.116Z,25.52
2022-12-15T07:41:09.476Z,26.50
2022-12-15T07:42:11.768Z,31.77
2022-12-15T07:43:14.059Z,24.08
2022-12-15T07:44:16.642Z,26.30
2022-12-15T07:45:19.011Z,25.48
2022-12-15T07:46:21.353Z,25.02
2022-12-15T07:47:24.050Z,27.55
2022-12-15T07:48:27.317Z,26.80
2022-12-15T07:49:29.790Z,21.70
2022-12-15T07:50:32.103Z,25.92
2022-12-15T07:51:34.558Z,23.92
2022-12-15T07:52:36.905Z,24.45
2022-12-15T07:53:39.395Z,26.13
2022-12-15T07:54:41.698Z,25.08
2022-12-15T07:56:06.328Z,23.73
2022-12-15T07:57:09.982Z,25.30
2022-12-15T07:58:12.298Z,26.55
2022-12-15T07:59:14.561Z,23.48
2022-12-15T08:00:17.872Z,29.45
2022-12-15T08:01:20.389Z,27.92
2022-12-15T08:02:23.036Z,31.35
2022-12-15T08:03:25.613Z,24.15
2022-12-15T08:04:28.121Z,22.92
2022-12-15T08:05:30.454Z,37.15
2022-12-15T08:06:32.879Z,24.80
2022-12-15T08:07:35.197Z,25.92
2022-12-15T08:08:37.515Z,31.10
2022-12-15T08:09:39.776Z,25.23
2022-12-15T08:10:42.090Z,25.48
2022-12-15T08:11:44.347Z,38.42
2022-12-15T08:12:46.604Z,20.73
2022-12-15T08:14:09.245Z,34.35
2022-12-15T08:15:12.016Z,24.95
2022-12-15T08:16:14.544Z,29.00
2022-12-15T08:17:16.954Z,26.40
2022-12-15T08:18:19.266Z,26.88
2022-12-15T08:19:21.664Z,44.15
2022-12-15T08:20:23.917Z,46.42
2022-12-15T08:21:26.198Z,83.80
2022-12-15T08:22:28.711Z,59.70
2022-12-15T08:23:31.823Z,49.10
2022-12-15T08:24:34.355Z,33.28
2022-12-15T08:25:36.677Z,33.00
2022-12-15T08:26:39.821Z,30.63
2022-12-15T08:27:42.089Z,23.52
2022-12-15T08:28:45.787Z,26.42
2022-12-15T08:29:51.120Z,21.38
2022-12-15T08:30:54.102Z,26.70
2022-12-15T08:31:56.447Z,22.60
2022-12-15T08:32:58.774Z,25.40
2022-12-15T08:34:02.006Z,26.95
2022-12-15T08:35:04.534Z,30.65
2022-12-15T08:36:10.033Z,26.13
2022-12-15T08:37:12.416Z,24.02
2022-12-15T08:38:14.913Z,26.48
2022-12-15T08:39:17.566Z,26.83
2022-12-15T08:40:20.488Z,109.32
2022-12-15T08:41:28.596Z,109.05
2022-12-15T08:42:35.231Z,79.25
2022-12-15T08:43:44.048Z,54.60
2022-12-15T08:44:50.333Z,52.35
2022-12-15T08:45:53.556Z,41.20
2022-12-15T08:46:56.150Z,38.83
2022-12-15T08:47:58.589Z,54.88
2022-12-15T08:49:02.020Z,43.22
2022-12-15T08:50:08.709Z,44.63
2022-12-15T08:51:12.017Z,37.58
2022-12-15T08:52:14.418Z,37.95
2022-12-15T08:53:32.566Z,34.75
2022-12-15T08:54:35.226Z,31.27
2022-12-15T08:55:37.805Z,37.92
2022-12-15T08:56:40.104Z,32.63
2022-12-15T08:57:42.464Z,34.70
2022-12-15T08:58:46.231Z,30.50
2022-12-15T08:59:48.825Z,30.42
2022-12-15T09:00:51.437Z,31.38
2022-12-15T09:01:53.998Z,30.55
2022-12-15T09:02:56.440Z,29.63
2022-12-15T09:03:59.438Z,32.08
2022-12-15T09:05:02.146Z,28.83
2022-12-15T09:06:13.683Z,30.90
2022-12-15T09:08:18.251Z,31.35
2022-12-15T09:09:20.641Z,27.53
2022-12-15T09:10:23.689Z,28.85
2022-12-15T09:11:27.221Z,29.65
2022-12-15T09:12:29.574Z,45.05
2022-12-15T09:13:32.686Z,37.90
2022-12-15T09:14:35.232Z,33.78
2022-12-15T09:16:07.555Z,29.02
2022-12-15T09:17:00.203Z,35.10
2022-12-15T09:18:03.487Z,35.38
2022-12-15T09:19:07.169Z,33.65
2022-12-15T09:20:09.852Z,31.33
2022-12-15T09:21:13.191Z,27.48
2022-12-15T09:22:15.566Z,27.48
2022-12-15T09:23:17.896Z,24.95
2022-12-15T09:24:32.275Z,27.80
2022-12-15T09:25:36.878Z,28.25
2022-12-15T09:26:39.213Z,26.02
2022-12-15T09:27:41.591Z,31.67
2022-12-15T09:28:44.140Z,26.95
2022-12-15T09:29:52.587Z,26.17
2022-12-15T09:30:55.146Z,28.08
2022-12-15T09:31:57.521Z,26.50
2022-12-15T09:32:59.780Z,25.73
2022-12-15T09:34:02.298Z,32.60
2022-12-15T09:35:05.116Z,30.30
2022-12-15T09:36:08.603Z,26.52
2022-12-15T09:37:10.979Z,29.88
2022-12-15T09:38:13.427Z,28.10
2022-12-15T09:39:16.893Z,27.80
2022-12-15T09:40:19.909Z,25.88
2022-12-15T09:41:34.372Z,27.00
2022-12-15T09:42:36.696Z,27.00
2022-12-15T09:44:02.633Z,26.98
2022-12-15T09:45:19.428Z,33.75
2022-12-15T09:46:38.183Z,25.33
2022-12-15T09:47:53.596Z,33.55
2022-12-15T09:48:59.871Z,35.72
2022-12-15T09:50:08.957Z,80.80
2022-12-15T09:51:16.499Z,60.20
2022-12-15T09:52:39.304Z,44.03
2022-12-15T09:53:57.445Z,58.20
2022-12-15T09:55:01.806Z,52.80
2022-12-15T09:56:12.286Z,46.67
2022-12-15T09:57:14.514Z,35.22
2022-12-15T09:58:25.716Z,31.58
2022-12-15T09:59:50.548Z,28.80
2022-12-15T10:01:18.888Z,26.67
2022-12-15T10:02:42.664Z,28.90
2022-12-15T10:04:09.426Z,28.33
2022-12-15T10:07:06.640Z,24.55
2022-12-15T10:08:10.056Z,26.88
2022-12-15T10:09:18.388Z,29.15
2022-12-15T10:10:42.958Z,27.83
2022-12-15T10:11:50.702Z,26.42
2022-12-15T10:13:02.277Z,25.58
2022-12-15T10:14:45.593Z,29.77
2022-12-15T10:16:07.427Z,31.52
2022-12-15T10:17:33.750Z,23.77
2022-12-15T10:18:46.482Z,23.60
2022-12-15T10:20:20.260Z,24.73
2022-12-15T10:21:26.180Z,25.38
2022-12-15T10:22:36.553Z,26.85
2022-12-15T10:23:39.007Z,27.60
2022-12-15T10:26:21.670Z,25.23
2022-12-15T10:27:35.944Z,27.52
2022-12-15T10:28:59.087Z,25.33
2022-12-15T10:30:12.380Z,22.13
2022-12-15T10:31:26.650Z,22.77
2022-12-15T10:32:36.714Z,23.88
2022-12-15T10:33:48.545Z,24.95
2022-12-15T10:34:52.645Z,26.95
2022-12-15T10:35:56.019Z,24.02
2022-12-15T10:36:59.041Z,21.52
2022-12-15T10:38:07.011Z,23.10
2022-12-15T10:39:12.942Z,22.65
2022-12-15T10:40:40.657Z,68.75
2022-12-15T10:41:43.669Z,60.28
2022-12-15T10:42:49.275Z,67.20
2022-12-15T10:43:54.006Z,83.43
2022-12-15T10:44:58.617Z,69.50
2022-12-15T10:46:05.570Z,65.13
2022-12-15T10:47:27.720Z,62.78
2022-12-15T10:48:30.440Z,50.17
2022-12-15T10:49:32.790Z,49.30
2022-12-15T10:50:35.487Z,37.72
2022-12-15T10:51:47.659Z,112.00
2022-12-15T10:52:50.258Z,143.88
2022-12-15T10:54:06.600Z,123.90
2022-12-15T10:55:49.875Z,118.97
2022-12-15T10:57:01.653Z,146.95
2022-12-15T10:59:32.277Z,61.53
2022-12-15T11:00:34.846Z,45.60
2022-12-15T11:01:37.345Z,44.45
2022-12-15T11:02:42.064Z,44.13
2022-12-15T11:03:45.937Z,39.97
2022-12-15T11:05:15.503Z,40.20
2022-12-15T11:06:21.527Z,38.80
2022-12-15T11:07:33.712Z,41.28
2022-12-15T11:08:36.641Z,34.88
2022-12-15T11:09:39.879Z,33.33
2022-12-15T11:11:17.363Z,37.08
2022-12-15T11:12:41.419Z,31.05
2022-12-15T11:14:04.840Z,25.83
2022-12-15T11:15:30.325Z,25.05
2022-12-15T11:16:32.863Z,31.73
2022-12-15T11:17:41.729Z,31.40
2022-12-15T11:19:05.776Z,34.00
2022-12-15T11:20:18.237Z,33.97
2022-12-15T11:21:26.433Z,37.58
2022-12-15T11:22:43.654Z,33.13
2022-12-15T11:24:32.008Z,34.58
2022-12-15T11:25:42.857Z,32.92
2022-12-15T11:27:03.891Z,38.83
2022-12-15T11:28:15.973Z,42.83
2022-12-15T11:29:39.164Z,40.60
2022-12-15T11:30:52.311Z,30.10
2022-12-15T11:31:58.855Z,32.55
2022-12-15T11:33:04.289Z,34.38
2022-12-15T11:34:19.856Z,44.05
2022-12-15T11:35:41.564Z,32.45
2022-12-15T11:36:57.122Z,33.20
2022-12-15T11:38:23.734Z,33.70
2022-12-15T11:39:31.720Z,27.23
2022-12-15T11:40:43.271Z,31.42
2022-12-15T11:42:00.993Z,32.60
2022-12-15T11:43:29.322Z,29.30
2022-12-15T11:44:44.855Z,26.75
2022-12-15T11:46:09.814Z,26.55
2022-12-15T11:47:27.771Z,31.42
2022-12-15T11:48:56.222Z,32.70
2022-12-15T11:50:26.210Z,30.88
2022-12-15T11:51:34.749Z,29.83
2022-12-15T11:52:55.627Z,33.38
2022-12-15T11:54:23.972Z,35.85
2022-12-15T11:55:53.201Z,39.78
2022-12-15T11:57:04.368Z,65.22
2022-12-15T11:58:24.460Z,51.58
2022-12-15T11:59:32.843Z,47.17
2022-12-15T12:00:57.650Z,37.72
2022-12-15T12:02:43.260Z,35.13
2022-12-15T12:04:20.495Z,40.33
2022-12-15T12:05:25.638Z,33.80
2022-12-15T12:06:38.208Z,40.53
2022-12-15T12:07:53.012Z,33.90
2022-12-15T12:09:17.057Z,37.60
2022-12-15T12:10:57.051Z,25.27
2022-12-15T12:12:12.862Z,30.77
2022-12-15T12:13:36.576Z,28.05
2022-12-15T12:15:00.839Z,34.05
2022-12-15T12:16:18.084Z,28.77
2022-12-15T12:17:41.430Z,29.95
2022-12-15T12:18:57.021Z,34.15
2022-12-15T12:20:07.822Z,28.48
2022-12-15T12:21:20.781Z,25.55
2022-12-15T12:22:44.518Z,25.58
2022-12-15T12:24:18.461Z,34.97
2022-12-15T12:25:23.659Z,35.47
2022-12-15T12:26:35.177Z,38.33
2022-12-15T12:27:54.804Z,39.28
2022-12-15T12:29:06.448Z,31.45
2022-12-15T12:30:15.135Z,32.08
2022-12-15T12:31:51.006Z,37.38
2022-12-15T12:33:02.588Z,39.03
2022-12-15T12:34:14.155Z,28.42
2022-12-15T12:36:39.591Z,41.22
2022-12-15T12:38:01.196Z,36.40
2022-12-15T12:39:06.049Z,38.63
2022-12-15T12:40:34.840Z,35.22
2022-12-15T12:41:43.800Z,42.03
2022-12-15T12:42:54.753Z,30.13
2022-12-15T12:44:01.118Z,31.70
2022-12-15T12:45:03.962Z,46.35
2022-12-15T12:46:25.564Z,35.47
2022-12-15T12:47:35.415Z,37.83
2022-12-15T12:48:45.390Z,36.55
2022-12-15T12:49:55.731Z,35.55
2022-12-15T12:51:20.038Z,27.17
2022-12-15T12:52:31.593Z,32.45
2022-12-15T12:53:34.907Z,38.60
2022-12-15T12:54:37.447Z,34.67
2022-12-15T12:55:42.980Z,30.20
2022-12-15T12:56:50.458Z,28.00
2022-12-15T12:57:54.478Z,39.03
2022-12-15T12:58:57.007Z,35.30
2022-12-15T13:00:02.324Z,30.48
2022-12-15T13:01:25.487Z,33.67
2022-12-15T13:02:29.179Z,30.73
2022-12-15T13:03:31.803Z,30.40
2022-12-15T13:04:49.215Z,33.05
2022-12-15T13:05:51.819Z,30.88
2022-12-15T13:07:01.500Z,38.15
2022-12-15T13:08:06.783Z,41.38
2022-12-15T13:09:42.740Z,69.78
2022-12-15T13:10:47.588Z,64.75
2022-12-15T13:12:03.185Z,46.33
2022-12-15T13:13:27.519Z,45.92
2022-12-15T13:14:41.469Z,57.08
2022-12-15T13:17:26.616Z,44.97
2022-12-15T13:18:49.759Z,38.92
2022-12-15T13:19:58.991Z,39.03
2022-12-15T13:21:35.325Z,37.38
2022-12-15T13:22:42.029Z,34.25
2022-12-15T13:23:46.199Z,34.00
2022-12-15T13:24:52.749Z,39.38
2022-12-15T13:25:57.751Z,31.90
2022-12-15T13:27:10.262Z,38.63
2022-12-15T13:28:24.436Z,38.03
2022-12-15T13:29:26.767Z,51.15
2022-12-15T13:30:29.099Z,38.88
2022-12-15T13:31:33.077Z,35.10
2022-12-15T13:32:41.422Z,47.78
2022-12-15T13:33:50.168Z,42.92
2022-12-15T13:34:52.535Z,40.25
2022-12-15T13:35:55.229Z,39.15
2022-12-15T13:36:58.958Z,36.72
2022-12-15T13:38:07.502Z,36.22
2022-12-15T13:39:12.682Z,41.42
2022-12-15T13:40:36.167Z,73.00
2022-12-15T13:43:26.549Z,41.47
2022-12-15T13:44:46.603Z,43.05
2022-12-15T13:45:56.360Z,30.90
2022-12-15T13:47:15.257Z,39.70
2022-12-15T13:49:00.725Z,41.38
2022-12-15T13:50:17.803Z,36.40
2022-12-15T13:51:33.346Z,40.67
2022-12-15T13:53:17.412Z,42.00
2022-12-15T13:54:20.115Z,35.13
2022-12-15T13:55:28.013Z,41.75
2022-12-15T13:57:04.835Z,38.92
2022-12-15T13:58:16.004Z,43.08
2022-12-15T13:59:33.720Z,32.83
2022-12-15T14:00:38.829Z,34.97
2022-12-15T14:01:50.870Z,42.28
2022-12-15T14:03:07.467Z,34.55
2022-12-15T14:04:15.524Z,40.15
2022-12-15T14:05:22.488Z,33.25
2022-12-15T14:06:28.897Z,29.10
2022-12-15T14:07:31.349Z,34.70
2022-12-15T14:08:33.672Z,37.45
2022-12-15T14:09:41.263Z,39.45
2022-12-15T14:10:55.363Z,29.80
2022-12-15T14:11:59.097Z,29.80
2022-12-15T14:13:15.982Z,27.60
2022-12-15T14:14:22.602Z,28.23
2022-12-15T14:15:29.664Z,32.20
2022-12-15T14:16:35.175Z,33.15
2022-12-15T14:17:38.256Z,35.97
2022-12-15T14:18:42.585Z,36.17
2022-12-15T14:19:50.918Z,31.35
2022-12-15T14:20:54.164Z,32.13
2022-12-15T14:21:58.094Z,39.40
2022-12-15T14:23:01.257Z,32.90
2022-12-15T14:24:39.957Z,32.90
2022-12-15T14:26:11.174Z,29.10
2022-12-15T14:27:31.569Z,37.83
2022-12-15T14:28:37.014Z,27.63
2022-12-15T14:29:39.388Z,26.80
2022-12-15T14:30:41.768Z,26.25
2022-12-15T14:31:54.027Z,24.02
2022-12-15T14:33:08.102Z,24.67
2022-12-15T14:34:29.634Z,31.58
2022-12-15T14:35:40.228Z,22.50
2022-12-15T14:36:44.080Z,28.00
2022-12-15T14:37:46.543Z,27.15
2022-12-15T14:39:01.908Z,27.13
2022-12-15T14:40:04.648Z,35.47
2022-12-15T14:41:11.003Z,67.63
2022-12-15T14:42:26.270Z,40.60
2022-12-15T14:43:36.648Z,29.48
2022-12-15T14:44:49.993Z,43.88
2022-12-15T14:46:15.669Z,32.90
2022-12-15T14:47:24.172Z,30.38
2022-12-15T14:48:41.551Z,24.63
2022-12-15T14:49:45.622Z,26.50
2022-12-15T14:50:48.999Z,30.73
2022-12-15T14:51:57.129Z,27.65
2022-12-15T14:53:11.429Z,22.95
2022-12-15T14:54:35.605Z,21.67
2022-12-15T14:55:39.397Z,22.65
2022-12-15T14:56:41.711Z,24.90
2022-12-15T14:57:45.987Z,24.67
2022-12-15T14:59:19.105Z,21.77
2022-12-15T15:00:47.631Z,20.02
2022-12-15T15:02:01.760Z,21.25
2022-12-15T15:03:03.565Z,24.40
2022-12-15T15:03:07.201Z,37.38
2022-12-15T15:03:09.751Z,44.28
2022-12-15T15:03:10.627Z,48.65
2022-12-15T15:04:33.992Z,28.95
2022-12-15T15:05:40.427Z,20.55
2022-12-15T15:06:44.404Z,19.55
2022-12-15T15:07:57.850Z,24.38
2022-12-15T15:09:24.890Z,20.63
2022-12-15T15:10:29.807Z,20.88
2022-12-15T15:11:41.317Z,24.85
2022-12-15T15:12:45.988Z,21.83
2022-12-15T15:13:48.435Z,24.08